Time;durP1;ratioP1;P1;durP2;ratioP2;P2;SDS_P1;SDS_P2;PMS_P1;PMS_P2;Temp;Humidity;BMP_temperature;BMP_pressure;BME280_temperature;BME280_humidity;BME280_pressure;Samples;Min_cycle;Max_cycle;Signal;HPM_P1;HPM_P2
2022/12/22 03:27:00;;;;;;;5.75;4.55;;;0.60;99.90;;;;;;5071475;28;20079;-77
2022/12/22 03:29:26;;;;;;;7.35;4.65;;;0.60;99.90;;;;;;5071339;28;20465;-75
2022/12/22 03:31:52;;;;;;;5.68;4.53;;;0.60;99.90;;;;;;5071459;28;20027;-75
2022/12/22 03:34:18;;;;;;;7.90;5.38;;;0.60;99.90;;;;;;5070955;28;20024;-74
2022/12/22 03:36:46;;;;;;;6.78;4.78;;;0.60;99.90;;;;;;5071329;28;20079;-77
2022/12/22 03:39:12;;;;;;;6.20;5.40;;;0.60;99.90;;;;;;5071074;28;20021;-76
2022/12/22 03:47:06;;;;;;;9.40;6.05;;;0.70;99.90;;;;;;5071599;28;20044;-77
2022/12/22 03:49:32;;;;;;;7.93;5.47;;;0.70;99.90;;;;;;5070958;28;20025;-76
2022/12/22 03:51:58;;;;;;;7.40;5.57;;;0.70;99.90;;;;;;5052911;28;20029;-75
2022/12/22 03:54:25;;;;;;;9.40;5.80;;;0.70;99.90;;;;;;5070821;28;20024;-76
2022/12/22 03:56:51;;;;;;;;;;;0.70;99.90;;;;;;5071368;28;20032;-75
2022/12/22 03:59:19;;;;;;;7.18;6.05;;;0.70;99.90;;;;;;5077814;28;19916;-79
2022/12/22 04:01:47;;;;;;;7.18;5.40;;;0.60;99.90;;;;;;5072064;28;20024;-77
2022/12/22 04:04:15;;;;;;;8.80;5.78;;;0.60;99.90;;;;;;5074308;28;20051;-77
2022/12/22 04:06:40;;;;;;;;;;;0.60;99.90;;;;;;5074636;28;20032;-77
2022/12/22 04:09:06;;;;;;;6.38;5.35;;;0.70;99.90;;;;;;5056304;28;19995;-76
2022/12/22 04:14:16;;;;;;;9.32;6.50;;;0.60;99.90;;;;;;5074540;28;20428;-76
2022/12/22 04:16:42;;;;;;;10.35;6.63;;;0.60;99.90;;;;;;5055207;28;20036;-76
2022/12/22 04:19:08;;;;;;;7.30;6.00;;;0.60;99.90;;;;;;5074210;28;20032;-75
2022/12/22 04:21:35;;;;;;;8.10;6.47;;;0.60;99.90;;;;;;5086219;28;20060;-76
2022/12/22 04:24:01;;;;;;;9.52;6.97;;;0.60;99.90;;;;;;5073973;28;20052;-76
2022/12/22 04:26:27;;;;;;;8.07;6.18;;;0.60;99.90;;;;;;5073893;28;20547;-76
2022/12/22 04:28:54;;;;;;;7.45;6.13;;;0.60;99.90;;;;;;5074702;28;20028;-77
2022/12/22 04:31:21;;;;;;;9.82;7.10;;;0.70;99.90;;;;;;5073246;28;20039;-76
2022/12/22 04:33:46;;;;;;;9.50;6.93;;;0.60;99.90;;;;;;5073949;28;20036;-77
2022/12/22 04:36:12;;;;;;;11.77;7.93;;;0.60;99.90;;;;;;5073724;28;20029;-76
2022/12/22 04:38:38;;;;;;;8.55;6.68;;;0.60;99.90;;;;;;5073426;28;20028;-78
2022/12/22 04:41:05;;;;;;;10.82;7.40;;;0.70;99.90;;;;;;5074342;28;20432;-76
2022/12/22 04:43:31;;;;;;;10.07;7.47;;;0.70;99.90;;;;;;5073936;28;20471;-76
2022/12/22 04:45:57;;;;;;;10.27;7.93;;;0.70;99.90;;;;;;5072611;28;20470;-76
2022/12/22 04:48:25;;;;;;;11.20;8.00;;;0.70;99.90;;;;;;5074462;28;20021;-76
2022/12/22 04:50:53;;;;;;;14.00;9.70;;;0.70;99.90;;;;;;5073179;28;20464;-76
2022/12/22 04:53:19;;;;;;;12.00;9.43;;;0.70;99.90;;;;;;5073426;28;20116;-76
2022/12/22 04:55:49;;;;;;;11.88;8.98;;;0.70;99.90;;;;;;5073117;28;20021;-76
2022/12/22 04:58:16;;;;;;;11.05;8.45;;;0.70;99.90;;;;;;5082550;28;20031;-76
2022/12/22 05:00:42;;;;;;;12.25;7.75;;;0.70;99.90;;;;;;5076016;28;20016;-75
2022/12/22 05:03:08;;;;;;;13.68;9.43;;;0.70;99.90;;;;;;5071974;28;20039;-76
2022/12/22 05:05:35;;;;;;;10.98;8.15;;;0.70;99.90;;;;;;5072969;28;20036;-76
2022/12/22 05:08:02;;;;;;;12.63;9.33;;;0.70;99.90;;;;;;5073257;28;20123;-77
2022/12/22 05:10:28;;;;;;;11.23;8.73;;;0.60;99.90;;;;;;5073101;28;20048;-76
2022/12/22 05:12:54;;;;;;;16.00;10.85;;;0.70;99.90;;;;;;5072433;28;20048;-76
2022/12/22 05:15:29;;;;;;;13.25;9.80;;;0.70;99.90;;;;;;5072955;28;20021;-76
2022/12/22 05:17:56;;;;;;;13.50;10.05;;;0.60;99.90;;;;;;5072925;28;20095;-77
2022/12/22 05:20:22;;;;;;;11.38;9.10;;;0.70;99.90;;;;;;5071939;28;20027;-78
2022/12/22 05:22:49;;;;;;;15.40;9.18;;;0.60;99.90;;;;;;5072932;28;20021;-77
2022/12/22 05:25:18;;;;;;;13.23;9.68;;;0.60;99.90;;;;;;5073007;28;20448;-76
2022/12/22 05:27:45;;;;;;;12.73;9.80;;;0.70;99.90;;;;;;5073398;28;20028;-77
2022/12/22 05:30:12;;;;;;;15.55;9.68;;;0.60;99.90;;;;;;5077947;28;20028;-77
2022/12/22 05:32:39;;;;;;;14.85;9.75;;;0.60;99.90;;;;;;5074563;28;20393;-77
2022/12/22 05:35:06;;;;;;;15.60;11.15;;;0.60;99.90;;;;;;5072162;28;20082;-78
2022/12/22 05:37:32;;;;;;;13.18;10.15;;;0.60;99.90;;;;;;5073362;28;20017;-75
2022/12/22 05:39:58;;;;;;;12.93;9.70;;;0.60;99.90;;;;;;5059112;28;20028;-77
2022/12/22 05:42:36;;;;;;;15.35;11.75;;;0.60;99.90;;;;;;5072623;28;20032;-77
2022/12/22 05:45:14;;;;;;;22.77;12.07;;;0.70;99.90;;;;;;5072548;28;20330;-78
2022/12/22 05:47:41;;;;;;;17.98;11.63;;;0.70;99.90;;;;;;5072128;28;20102;-77
2022/12/22 05:50:07;;;;;;;18.47;11.27;;;0.70;99.90;;;;;;5055770;28;20075;-77
2022/12/22 05:52:33;;;;;;;20.60;12.13;;;0.70;99.90;;;;;;5070943;28;20531;-79
2022/12/22 05:54:59;;;;;;;15.38;11.52;;;0.70;99.90;;;;;;5054634;28;20111;-76
2022/12/22 05:57:25;;;;;;;16.15;11.20;;;0.70;99.90;;;;;;5068184;28;20039;-75
2022/12/22 05:59:51;;;;;;;16.55;11.57;;;0.70;99.90;;;;;;5071951;28;20032;-76
2022/12/22 06:02:17;;;;;;;17.85;11.02;;;0.70;99.90;;;;;;5071547;28;20432;-77
2022/12/22 06:04:43;;;;;;;20.35;14.07;;;0.70;99.90;;;;;;5053673;28;20035;-76
2022/12/22 06:07:09;;;;;;;19.05;12.18;;;0.70;99.90;;;;;;5071785;28;20037;-77
2022/12/22 06:09:34;;;;;;;15.80;11.43;;;0.70;99.90;;;;;;5070197;28;20092;-77
2022/12/22 06:12:01;;;;;;;15.85;11.27;;;0.70;99.90;;;;;;5071581;28;20095;-75
2022/12/22 06:14:27;;;;;;;21.55;12.75;;;0.80;99.90;;;;;;5071699;28;20050;-75
2022/12/22 06:16:52;;;;;;;19.58;13.48;;;0.80;99.90;;;;;;5071530;28;20025;-77
2022/12/22 06:19:21;;;;;;;15.70;11.98;;;0.80;99.90;;;;;;5071345;28;20019;-78
2022/12/22 06:21:47;;;;;;;15.57;12.05;;;0.80;99.90;;;;;;5042096;28;20032;-76
2022/12/22 06:24:12;;;;;;;18.30;13.02;;;0.80;99.90;;;;;;5077823;28;20101;-77
2022/12/22 06:26:38;;;;;;;16.73;12.48;;;0.80;99.90;;;;;;5078824;28;20517;-77
2022/12/22 06:29:04;;;;;;;18.70;12.93;;;0.80;99.90;;;;;;5085718;28;20020;-78
2022/12/22 06:31:30;;;;;;;19.10;12.63;;;0.80;99.90;;;;;;5077326;28;20159;-76
2022/12/22 06:33:56;;;;;;;14.52;11.57;;;0.80;99.90;;;;;;5052936;28;20537;-77
2022/12/22 06:36:22;;;;;;;17.50;12.10;;;0.80;99.90;;;;;;5073745;28;20075;-76
2022/12/22 06:38:48;;;;;;;14.38;11.35;;;0.80;99.90;;;;;;5072659;28;20048;-77
2022/12/22 06:43:07;;;;;;;17.70;11.90;;;0.80;99.90;;;;;;5053359;28;20039;-77
2022/12/22 06:44:00;;;;;;;16.20;12.52;;;0.80;99.90;;;;;;5073498;28;20028;-78
2022/12/22 06:46:26;;;;;;;17.70;12.52;;;0.80;99.90;;;;;;5059984;28;20502;-78
2022/12/22 06:48:52;;;;;;;20.30;13.07;;;0.80;99.90;;;;;;5033335;28;20017;-78
2022/12/22 06:51:18;;;;;;;18.67;12.85;;;0.80;99.90;;;;;;5050730;28;20025;-79
2022/12/22 06:53:44;;;;;;;30.90;12.30;;;0.80;99.90;;;;;;5069693;28;20016;-77
2022/12/22 06:56:10;;;;;;;18.40;12.10;;;0.80;99.90;;;;;;5068689;28;20438;-78
2022/12/22 06:58:38;;;;;;;18.23;12.38;;;0.80;99.90;;;;;;5075864;28;20020;-77
2022/12/22 07:01:04;;;;;;;17.02;12.88;;;0.80;99.90;;;;;;5073312;28;20028;-79
2022/12/22 07:03:30;;;;;;;15.82;11.25;;;0.80;99.90;;;;;;5087859;28;20102;-79
2022/12/22 07:05:55;;;;;;;17.48;11.15;;;0.80;99.90;;;;;;5084580;28;20053;-81
2022/12/22 07:08:21;;;;;;;16.08;12.15;;;0.80;99.90;;;;;;5088491;28;20482;-80
2022/12/22 07:10:56;;;;;;;16.95;11.95;;;0.80;99.90;;;;;;5055840;28;20393;-79
2022/12/22 07:13:24;;;;;;;21.45;11.68;;;0.80;99.90;;;;;;5072761;28;20036;-81
2022/12/22 07:15:51;;;;;;;18.88;13.57;;;0.80;99.90;;;;;;5082915;28;20024;-80
2022/12/22 07:18:16;;;;;;;19.73;13.13;;;0.80;99.90;;;;;;5079446;28;20444;-81
2022/12/22 07:20:42;;;;;;;17.85;12.88;;;0.80;99.90;;;;;;5083540;28;20103;-81
2022/12/22 07:23:08;;;;;;;19.27;11.60;;;0.80;99.90;;;;;;5053347;28;20028;-81
2022/12/22 07:25:34;;;;;;;17.23;12.15;;;0.80;99.90;;;;;;5098426;28;20044;-80
2022/12/22 07:28:00;;;;;;;18.98;11.52;;;0.80;99.90;;;;;;5095705;28;20070;-80
2022/12/22 07:30:30;;;;;;;16.08;11.88;;;0.80;99.90;;;;;;5100061;28;20086;-82
2022/12/22 07:32:56;;;;;;;21.15;12.30;;;0.90;99.90;;;;;;5102008;28;20380;-81
2022/12/22 07:35:25;;;;;;;19.55;12.15;;;0.90;99.90;;;;;;5105522;28;20019;-80
2022/12/22 07:37:51;;;;;;;14.90;11.15;;;0.90;99.90;;;;;;5104779;28;20016;-79
2022/12/22 07:40:17;;;;;;;18.77;12.20;;;1.00;99.90;;;;;;5098315;28;20060;-80
2022/12/22 07:42:46;;;;;;;16.30;10.88;;;0.90;99.90;;;;;;5078997;28;20471;-80
2022/12/22 07:45:13;;;;;;;16.70;11.38;;;0.90;99.90;;;;;;5095284;28;20024;-80
2022/12/22 07:47:40;;;;;;;18.48;12.68;;;1.00;99.90;;;;;;5095142;28;20465;-80
2022/12/22 07:50:24;;;;;;;17.45;11.30;;;1.00;99.90;;;;;;5097513;28;20047;-80
2022/12/22 07:53:01;;;;;;;19.15;12.23;;;1.00;99.90;;;;;;5065047;28;20114;-80
2022/12/22 07:55:34;;;;;;;14.90;11.65;;;1.00;99.90;;;;;;5090501;28;20012;-78
2022/12/22 07:58:03;;;;;;;18.73;11.52;;;1.00;99.90;;;;;;5102003;28;20434;-80
2022/12/22 08:00:29;;;;;;;18.13;12.35;;;1.00;99.90;;;;;;5100253;28;20040;-79
2022/12/22 08:03:00;;;;;;;15.32;10.82;;;1.00;99.90;;;;;;5107379;28;20051;-79
2022/12/22 08:05:26;;;;;;;16.90;12.30;;;1.00;99.90;;;;;;5093368;28;20465;-80
2022/12/22 08:07:52;;;;;;;21.13;10.32;;;1.00;99.90;;;;;;5094693;28;20123;-79
2022/12/22 08:10:19;;;;;;;20.08;12.70;;;1.00;99.90;;;;;;5076238;28;20044;-79
2022/12/22 08:12:46;;;;;;;14.25;11.77;;;1.00;99.90;;;;;;5090172;28;20436;-78
2022/12/22 08:15:12;;;;;;;17.13;11.90;;;1.00;99.90;;;;;;5094030;28;20062;-78
2022/12/22 08:17:38;;;;;;;17.98;12.20;;;1.00;99.90;;;;;;5093746;28;20074;-79
2022/12/22 08:20:05;;;;;;;17.10;11.93;;;0.90;99.90;;;;;;5094086;28;20020;-79
2022/12/22 08:22:31;;;;;;;19.27;13.45;;;0.90;99.90;;;;;;5074919;28;20028;-81
2022/12/22 08:25:00;;;;;;;18.60;12.45;;;1.00;99.90;;;;;;5079779;28;20048;-79
2022/12/22 08:27:38;;;;;;;16.23;12.05;;;1.00;99.90;;;;;;5073920;28;20436;-79
2022/12/22 08:30:06;;;;;;;22.10;13.70;;;1.00;99.90;;;;;;5074351;28;20029;-81
2022/12/22 08:32:33;;;;;;;17.60;12.52;;;1.00;99.90;;;;;;5074248;28;20056;-80
2022/12/22 08:35:03;;;;;;;17.73;11.68;;;1.00;99.90;;;;;;5074002;28;20103;-81
2022/12/22 08:37:32;;;;;;;27.17;15.93;;;1.00;99.90;;;;;;5072988;28;20032;-81
2022/12/22 08:40:03;;;;;;;21.60;13.35;;;1.00;99.90;;;;;;5073828;28;20489;-80
2022/12/22 08:42:29;;;;;;;21.98;13.38;;;1.00;99.90;;;;;;5073750;28;20081;-81
2022/12/22 08:44:55;;;;;;;16.13;11.57;;;1.00;99.90;;;;;;5055510;28;20434;-80
2022/12/22 08:47:22;;;;;;;21.05;13.80;;;1.00;99.90;;;;;;5072863;28;20072;-81
2022/12/22 08:49:52;;;;;;;24.50;14.90;;;0.90;99.90;;;;;;5055814;28;20029;-81
2022/12/22 08:52:18;;;;;;;22.35;13.65;;;0.90;99.90;;;;;;5055628;28;20455;-81
2022/12/22 08:54:44;;;;;;;17.20;13.45;;;1.00;99.90;;;;;;5073014;28;20108;-81
2022/12/22 08:57:10;;;;;;;25.85;18.00;;;1.00;99.90;;;;;;5073705;28;20025;-81
2022/12/22 08:59:38;;;;;;;24.27;17.50;;;1.00;99.90;;;;;;5085745;28;20127;-81
2022/12/22 09:02:04;;;;;;;22.77;14.95;;;1.00;99.90;;;;;;5056168;28;20051;-81
2022/12/22 09:04:34;;;;;;;20.33;12.60;;;1.00;99.90;;;;;;5074107;28;20025;-81
2022/12/22 09:07:01;;;;;;;25.02;15.18;;;1.00;99.90;;;;;;5075085;28;20108;-81
2022/12/22 09:09:31;;;;;;;21.38;15.18;;;1.00;99.90;;;;;;5076806;28;20084;-81
2022/12/22 09:11:58;;;;;;;20.15;13.25;;;1.10;99.90;;;;;;5055682;28;20063;-82
2022/12/22 09:14:24;;;;;;;20.95;12.52;;;1.10;99.90;;;;;;5055697;28;20524;-81
2022/12/22 09:16:49;;;;;;;20.52;14.63;;;1.10;99.90;;;;;;5073245;28;20021;-83
2022/12/22 09:19:16;;;;;;;29.45;15.52;;;1.10;99.90;;;;;;5055349;28;20409;-82
2022/12/22 09:21:42;;;;;;;24.08;16.00;;;1.10;99.90;;;;;;5073309;28;20028;-81
2022/12/22 09:24:08;;;;;;;23.10;14.43;;;1.10;99.90;;;;;;5074140;28;20044;-80
2022/12/22 09:26:35;;;;;;;21.95;14.35;;;1.20;99.90;;;;;;5077761;28;20047;-81
2022/12/22 09:29:02;;;;;;;21.70;13.70;;;1.20;99.90;;;;;;5080612;28;20061;-81
2022/12/22 09:31:28;;;;;;;20.88;13.88;;;1.20;99.90;;;;;;5073316;28;20021;-81
2022/12/22 09:33:54;;;;;;;17.13;12.20;;;1.20;99.90;;;;;;5072790;28;20024;-81
2022/12/22 09:36:25;;;;;;;24.90;14.52;;;1.20;99.90;;;;;;5055372;28;20114;-81
2022/12/22 09:38:52;;;;;;;23.33;14.80;;;1.20;99.90;;;;;;5074144;28;20092;-82
2022/12/22 09:41:47;;;;;;;20.75;15.23;;;1.30;99.90;;;;;;5073898;28;20025;-81
2022/12/22 09:44:25;;;;;;;21.38;13.50;;;1.30;99.90;;;;;;5051324;28;20084;-82
2022/12/22 09:46:54;;;;;;;19.98;13.35;;;1.30;99.90;;;;;;5074729;28;20439;-81
2022/12/22 09:49:21;;;;;;;24.10;15.77;;;1.30;99.90;;;;;;5072921;28;20126;-82
2022/12/22 09:51:52;;;;;;;19.83;13.60;;;1.30;99.90;;;;;;5055841;28;20033;-83
2022/12/22 09:54:18;;;;;;;23.02;13.07;;;1.20;99.90;;;;;;5061076;28;20048;-83
2022/12/22 09:56:44;;;;;;;26.42;14.02;;;1.10;99.90;;;;;;5073149;28;20020;-85
2022/12/22 09:59:12;;;;;;;23.98;17.45;;;1.10;99.90;;;;;;5062412;28;20020;-83
2022/12/22 10:01:38;;;;;;;26.65;16.67;;;1.10;99.90;;;;;;5073170;28;20031;-85
2022/12/22 10:04:23;;;;;;;22.45;15.65;;;1.00;99.90;;;;;;5055125;28;20481;-83
2022/12/22 10:07:06;;;;;;;24.42;15.43;;;1.10;99.90;;;;;;5054856;28;20039;-83
2022/12/22 10:09:35;;;;;;;17.88;12.13;;;1.10;99.90;;;;;;5073236;28;20021;-82
2022/12/22 10:12:04;;;;;;;15.98;10.93;;;1.10;99.90;;;;;;5073130;28;20032;-82
2022/12/22 10:14:34;;;;;;;21.80;14.88;;;1.10;99.90;;;;;;5072275;28;20012;-83
2022/12/22 10:17:31;;;;;;;18.27;13.98;;;1.10;99.90;;;;;;5071459;28;20029;-81
2022/12/22 10:20:08;;;;;;;25.08;16.83;;;1.10;99.90;;;;;;5070710;28;20043;-82
2022/12/22 10:22:48;;;;;;;22.10;14.27;;;1.10;99.90;;;;;;5071900;28;20028;-83
2022/12/22 10:25:33;;;;;;;29.70;17.83;;;1.20;99.90;;;;;;5072013;28;20131;-83
2022/12/22 10:28:06;;;;;;;24.70;17.55;;;1.10;99.90;;;;;;5072935;28;20052;-83
2022/12/22 10:30:37;;;;;;;20.15;12.65;;;1.20;99.90;;;;;;5073386;28;20048;-84
2022/12/22 10:33:12;;;;;;;22.50;16.15;;;1.10;99.90;;;;;;5054608;28;20052;-82
2022/12/22 10:35:56;;;;;;;25.48;14.90;;;1.10;99.90;;;;;;5077206;28;20101;-82
2022/12/22 10:38:32;;;;;;;29.40;16.13;;;1.10;99.90;;;;;;5061855;28;20489;-83
2022/12/22 10:41:03;;;;;;;24.73;16.20;;;1.20;99.90;;;;;;5072094;28;20420;-84
2022/12/22 10:43:34;;;;;;;24.15;16.27;;;1.30;99.90;;;;;;5072297;28;20017;-83
2022/12/22 10:46:02;;;;;;;28.73;20.13;;;1.20;99.90;;;;;;5072141;28;20024;-82
2022/12/22 10:48:35;;;;;;;25.25;16.48;;;1.30;99.90;;;;;;5052408;28;20037;-81
2022/12/22 10:51:04;;;;;;;23.38;16.48;;;1.40;99.90;;;;;;5071604;28;20056;-84
2022/12/22 10:53:45;;;;;;;21.42;16.17;;;1.40;99.90;;;;;;5074234;28;20020;-83
2022/12/22 10:56:24;;;;;;;24.35;15.63;;;1.40;99.90;;;;;;5059938;28;20387;-82
2022/12/22 10:59:12;;;;;;;28.38;17.17;;;1.40;99.90;;;;;;5066810;28;20039;-81
2022/12/22 11:01:38;;;;;;;27.23;16.85;;;1.40;99.90;;;;;;5072893;28;20013;-85
2022/12/22 11:04:37;;;;;;;35.17;18.90;;;1.40;99.90;;;;;;5073657;28;20016;-83
2022/12/22 11:07:08;;;;;;;28.65;17.50;;;1.40;99.90;;;;;;5011440;28;20102;-83
2022/12/22 11:09:39;;;;;;;23.92;16.65;;;1.40;99.90;;;;;;5065862;28;20366;-84
2022/12/22 11:12:46;;;;;;;25.98;17.02;;;1.40;99.90;;;;;;5076028;28;20028;-82
2022/12/22 11:15:30;;;;;;;26.52;16.67;;;1.50;99.90;;;;;;5047655;28;20041;-84
2022/12/22 11:18:15;;;;;;;22.98;15.20;;;1.50;99.90;;;;;;5075707;28;20028;-83
2022/12/22 11:21:22;;;;;;;25.13;15.70;;;1.50;99.90;;;;;;5056913;28;20025;-82
2022/12/22 11:24:11;;;;;;;26.80;16.63;;;1.40;99.90;;;;;;5069720;28;20090;-83
2022/12/22 11:26:49;;;;;;;25.55;15.93;;;1.40;99.90;;;;;;5055727;28;20075;-83
2022/12/22 11:29:51;;;;;;;24.98;15.85;;;1.40;99.90;;;;;;5095484;28;20456;-82
2022/12/22 11:32:33;;;;;;;24.48;15.63;;;1.30;99.90;;;;;;5096781;28;20485;-83
2022/12/22 11:35:21;;;;;;;27.65;16.33;;;1.30;99.90;;;;;;5096562;28;20452;-84
2022/12/22 11:38:10;;;;;;;29.08;17.40;;;1.40;99.90;;;;;;5095880;28;20024;-84
2022/12/22 11:40:47;;;;;;;26.48;16.42;;;1.40;99.90;;;;;;5095753;28;20020;-85
2022/12/22 11:43:39;;;;;;;23.20;14.02;;;1.40;99.90;;;;;;5079995;28;20028;-84
2022/12/22 11:46:40;;;;;;;25.85;16.02;;;1.50;99.90;;;;;;5088399;28;20035;-83
2022/12/22 11:49:43;;;;;;;28.98;15.77;;;1.40;99.90;;;;;;5108822;28;20031;-82
2022/12/22 11:52:36;;;;;;;32.00;18.95;;;1.40;99.90;;;;;;5098287;28;20032;-83
2022/12/22 11:55:22;;;;;;;23.38;14.52;;;1.40;99.90;;;;;;5094157;28;20423;-83
2022/12/22 11:58:02;;;;;;;28.88;15.23;;;1.40;99.90;;;;;;5101085;28;20016;-83
2022/12/22 12:00:39;;;;;;;31.85;16.23;;;1.40;99.90;;;;;;5099787;28;20020;-86
2022/12/22 12:03:07;;;;;;;26.40;16.75;;;1.40;99.90;;;;;;5079247;28;20031;-81
2022/12/22 12:06:05;;;;;;;32.75;16.00;;;1.40;99.90;;;;;;5098750;28;20084;-84
2022/12/22 12:09:06;;;;;;;29.60;15.63;;;1.50;99.90;;;;;;5074284;28;20110;-83
2022/12/22 12:11:45;;;;;;;20.48;14.93;;;1.40;99.90;;;;;;4996139;28;20395;-83
2022/12/22 12:14:40;;;;;;;25.05;13.38;;;1.50;99.90;;;;;;4996239;28;20601;-83
2022/12/22 12:17:11;;;;;;;24.23;14.00;;;1.50;99.90;;;;;;5012724;28;20022;-83
2022/12/22 12:20:08;;;;;;;28.40;17.75;;;1.40;99.90;;;;;;5012273;28;20089;-84
2022/12/22 12:22:52;;;;;;;19.63;13.50;;;1.50;99.90;;;;;;5011741;28;20129;-83
2022/12/22 12:25:24;;;;;;;21.35;13.48;;;1.40;99.90;;;;;;5012470;28;20337;-81
2022/12/22 12:28:16;;;;;;;26.05;15.70;;;1.50;99.90;;;;;;5006443;28;20154;-82
2022/12/22 12:30:51;;;;;;;20.83;12.23;;;1.40;99.90;;;;;;5010063;28;20442;-84
2022/12/22 12:33:43;;;;;;;28.77;15.35;;;1.40;99.90;;;;;;5012636;28;20053;-84
2022/12/22 12:36:44;;;;;;;21.55;14.10;;;1.40;99.90;;;;;;5011262;28;20038;-82
2022/12/22 12:39:36;;;;;;;33.47;14.82;;;1.40;99.90;;;;;;5012362;28;20040;-81
2022/12/22 12:42:31;;;;;;;26.05;11.77;;;1.40;99.90;;;;;;5011390;28;20026;-82
2022/12/22 12:45:01;;;;;;;18.23;12.32;;;1.50;99.90;;;;;;5027842;28;20033;-83
2022/12/22 12:47:36;;;;;;;18.75;9.70;;;1.40;99.90;;;;;;5068049;28;20040;-81
2022/12/22 12:50:33;;;;;;;24.20;16.85;;;1.50;99.90;;;;;;5081670;28;20509;-82
2022/12/22 12:53:04;;;;;;;;;;;1.50;99.90;;;;;;5053979;28;20027;-81
2022/12/22 12:55:39;;;;;;;14.65;10.32;;;1.50;99.90;;;;;;5070292;28;19988;-83
2022/12/22 12:58:34;;;;;;;15.43;10.57;;;1.50;99.90;;;;;;5081588;28;20101;-82
2022/12/22 13:01:22;;;;;;;18.27;10.77;;;1.50;99.90;;;;;;5073747;28;20373;-82
2022/12/22 13:03:50;;;;;;;16.75;11.00;;;1.40;99.90;;;;;;5072453;28;20077;-81
2022/12/22 13:06:45;;;;;;;14.75;10.88;;;1.50;99.90;;;;;;5051824;28;20080;-83
2022/12/22 13:09:20;;;;;;;18.08;12.00;;;1.50;99.90;;;;;;5067961;28;20538;-81
2022/12/22 13:11:49;;;;;;;13.18;10.00;;;1.50;99.90;;;;;;5074122;28;20101;-82
2022/12/22 13:14:52;;;;;;;14.50;9.07;;;1.50;99.90;;;;;;5073855;28;20025;-83
2022/12/22 13:17:46;;;;;;;14.68;10.32;;;1.50;99.90;;;;;;5055008;28;20508;-82
2022/12/22 13:20:17;;;;;;;16.13;11.10;;;1.50;99.90;;;;;;5073939;28;20028;-82
2022/12/22 13:22:48;;;;;;;16.27;11.30;;;1.50;99.90;;;;;;5074952;28;20024;-81
2022/12/22 13:25:24;;;;;;;14.93;10.18;;;1.60;99.90;;;;;;5073242;28;20098;-83
2022/12/22 13:27:56;;;;;;;16.75;10.38;;;1.60;99.90;;;;;;5073387;28;20107;-82
2022/12/22 13:30:22;;;;;;;21.08;11.45;;;1.60;99.90;;;;;;5056105;28;20047;-83
2022/12/22 13:32:52;;;;;;;18.33;10.02;;;1.60;99.90;;;;;;5075442;28;20021;-84
2022/12/22 13:35:35;;;;;;;15.57;10.18;;;1.60;99.90;;;;;;5054152;28;20560;-83
2022/12/22 13:38:06;;;;;;;15.02;9.02;;;1.60;99.90;;;;;;5055095;28;20066;-82
2022/12/22 13:40:42;;;;;;;14.77;9.50;;;1.60;99.90;;;;;;5073429;28;20025;-83
2022/12/22 13:43:14;;;;;;;13.02;7.70;;;1.60;99.90;;;;;;5073704;28;20101;-82
2022/12/22 13:45:42;;;;;;;15.80;9.95;;;1.60;99.90;;;;;;5073707;28;20134;-80
2022/12/22 13:48:45;;;;;;;15.20;11.13;;;1.60;99.90;;;;;;5073448;28;20581;-81
2022/12/22 13:51:22;;;;;;;17.15;10.90;;;1.60;99.90;;;;;;5061524;28;20044;-84
2022/12/22 13:54:16;;;;;;;17.60;11.82;;;1.60;99.90;;;;;;5074226;28;20020;-82
2022/12/22 13:56:47;;;;;;;16.40;10.90;;;1.60;99.90;;;;;;5060368;28;20024;-80
2022/12/22 13:59:32;;;;;;;14.95;10.18;;;1.60;99.90;;;;;;5094505;28;20391;-82
2022/12/22 14:02:17;;;;;;;15.68;10.27;;;1.60;99.90;;;;;;5075139;28;20465;-85
2022/12/22 14:05:11;;;;;;;21.27;11.40;;;1.60;99.90;;;;;;5064324;28;20675;-82
2022/12/22 14:07:37;;;;;;;16.52;10.77;;;1.60;99.90;;;;;;5074316;28;20032;-82
2022/12/22 14:10:04;;;;;;;20.58;12.55;;;1.70;99.90;;;;;;5073791;28;20021;-82
2022/12/22 14:12:44;;;;;;;19.52;12.27;;;1.70;99.90;;;;;;5073471;28;20048;-82
2022/12/22 14:15:19;;;;;;;16.10;11.70;;;1.70;99.90;;;;;;5055450;28;20028;-83
2022/12/22 14:17:45;;;;;;;17.25;11.30;;;1.70;99.90;;;;;;5072760;28;20047;-82
2022/12/22 14:20:28;;;;;;;22.10;12.40;;;1.70;99.90;;;;;;5055297;28;20489;-83
2022/12/22 14:23:04;;;;;;;17.95;10.77;;;1.70;99.90;;;;;;5073666;28;20055;-83
2022/12/22 14:25:42;;;;;;;15.57;10.38;;;1.80;99.90;;;;;;5074257;28;20515;-83
2022/12/22 14:28:17;;;;;;;17.67;11.40;;;1.80;99.90;;;;;;5097320;28;20036;-82
2022/12/22 14:30:47;;;;;;;16.25;11.48;;;1.70;99.90;;;;;;5081382;28;20021;-82
2022/12/22 14:33:31;;;;;;;19.10;12.25;;;1.80;99.90;;;;;;5073402;28;20024;-84
2022/12/22 14:36:24;;;;;;;17.73;12.90;;;1.80;99.90;;;;;;5093177;28;20442;-83
2022/12/22 14:38:54;;;;;;;26.52;12.48;;;1.90;99.90;;;;;;5058273;28;20032;-83
2022/12/22 14:41:42;;;;;;;22.02;13.15;;;1.90;99.90;;;;;;5074497;28;20023;-83
2022/12/22 14:44:34;;;;;;;16.05;10.85;;;2.00;99.90;;;;;;5079255;28;20069;-84
2022/12/22 14:47:16;;;;;;;17.85;11.68;;;2.00;99.90;;;;;;5092834;28;20049;-83
2022/12/22 14:50:18;;;;;;;15.60;10.73;;;2.00;99.90;;;;;;5092351;28;20046;-84
2022/12/22 14:52:44;;;;;;;19.27;12.88;;;2.00;99.90;;;;;;5080972;28;20349;-83
2022/12/22 14:55:27;;;;;;;20.77;14.32;;;2.00;99.90;;;;;;5092961;28;20016;-84
2022/12/22 14:58:12;;;;;;;17.30;12.02;;;2.00;99.90;;;;;;5084422;28;20024;-82
2022/12/22 15:00:46;;;;;;;17.05;12.18;;;2.00;99.90;;;;;;5124937;28;20028;-82
2022/12/22 15:03:24;;;;;;;20.13;13.90;;;2.00;99.90;;;;;;5113485;28;20031;-84
2022/12/22 15:05:51;;;;;;;18.52;10.65;;;2.00;99.90;;;;;;5096549;28;20048;-84
2022/12/22 15:08:36;;;;;;;22.58;14.20;;;2.00;99.90;;;;;;5112477;28;20068;-83
2022/12/22 15:11:02;;;;;;;17.17;11.32;;;2.00;99.90;;;;;;5113443;28;20026;-82
2022/12/22 15:13:29;;;;;;;14.85;9.75;;;2.00;99.90;;;;;;5112996;28;20392;-82
2022/12/22 15:15:57;;;;;;;17.75;10.32;;;2.00;99.90;;;;;;5113124;28;20103;-83
2022/12/22 15:18:26;;;;;;;16.60;11.25;;;2.00;99.90;;;;;;5113349;28;20034;-84
2022/12/22 15:20:56;;;;;;;16.88;11.65;;;2.00;99.90;;;;;;5112578;28;20042;-85
2022/12/22 15:23:22;;;;;;;19.42;10.80;;;2.00;99.90;;;;;;5113628;28;20019;-83
2022/12/22 15:25:48;;;;;;;13.55;9.38;;;2.00;99.90;;;;;;5112882;28;20462;-84
2022/12/22 15:28:14;;;;;;;20.58;11.05;;;2.00;99.90;;;;;;5095971;28;20023;-84
2022/12/22 15:30:41;;;;;;;20.90;12.82;;;1.90;99.90;;;;;;5113153;28;20016;-83
2022/12/22 15:33:16;;;;;;;18.17;11.13;;;1.90;99.90;;;;;;5077924;28;20124;-85
2022/12/22 15:35:43;;;;;;;18.60;13.70;;;1.90;99.90;;;;;;5113368;28;20024;-86
2022/12/22 15:38:21;;;;;;;20.23;13.02;;;1.90;99.90;;;;;;5112612;28;20012;-85
2022/12/22 15:40:56;;;;;;;21.77;11.23;;;2.00;99.90;;;;;;5077970;28;20024;-83
2022/12/22 15:43:23;;;;;;;20.50;13.40;;;2.00;99.90;;;;;;5105535;28;20020;-83
2022/12/22 15:45:55;;;;;;;19.55;13.07;;;2.00;99.90;;;;;;5089471;28;20016;-85
2022/12/22 15:48:38;;;;;;;16.95;10.90;;;2.00;99.90;;;;;;5106060;28;20035;-83
2022/12/22 15:51:14;;;;;;;16.65;11.80;;;2.10;99.90;;;;;;5083486;28;20055;-86
2022/12/22 15:53:44;;;;;;;16.95;11.52;;;2.10;99.90;;;;;;5114708;28;20023;-86
2022/12/22 15:56:17;;;;;;;23.33;11.77;;;2.10;99.90;;;;;;5123150;28;20035;-85
2022/12/22 15:58:43;;;;;;;18.58;11.20;;;2.00;99.90;;;;;;5138372;28;20039;-86
2022/12/22 16:01:11;;;;;;;20.63;13.48;;;1.90;99.90;;;;;;5126166;28;20076;-86
2022/12/22 16:03:39;;;;;;;27.73;15.48;;;2.00;99.90;;;;;;5117294;28;20047;-85
2022/12/22 16:06:07;;;;;;;22.88;16.50;;;1.90;99.90;;;;;;5132406;28;20019;-85
2022/12/22 16:08:44;;;;;;;23.38;16.38;;;2.00;99.90;;;;;;5129479;28;20030;-85
2022/12/22 16:11:11;;;;;;;30.63;17.52;;;2.00;99.90;;;;;;5122601;28;20472;-83
2022/12/22 16:13:37;;;;;;;27.13;16.83;;;2.00;99.90;;;;;;5115989;28;20160;-87
2022/12/22 16:16:03;;;;;;;23.38;15.85;;;2.10;99.90;;;;;;5081076;28;20376;-85
2022/12/22 16:18:29;;;;;;;24.92;17.50;;;2.10;99.90;;;;;;5117886;28;20380;-84
2022/12/22 16:20:59;;;;;;;33.30;19.75;;;2.00;99.90;;;;;;5117152;28;20030;-85
2022/12/22 16:23:27;;;;;;;25.20;15.80;;;2.00;99.90;;;;;;5098491;28;20024;-86
2022/12/22 16:25:54;;;;;;;24.17;17.17;;;2.00;99.90;;;;;;5118632;28;20039;-84
2022/12/22 16:28:29;;;;;;;28.40;18.40;;;2.00;99.90;;;;;;5127039;28;20058;-85
2022/12/22 16:30:59;;;;;;;30.60;19.70;;;2.00;99.90;;;;;;5120254;28;20028;-84
2022/12/22 16:33:27;;;;;;;28.42;17.38;;;2.10;99.90;;;;;;5104355;28;20075;-85
2022/12/22 16:35:53;;;;;;;26.15;18.30;;;2.20;99.90;;;;;;5116486;28;20035;-86
2022/12/22 16:38:19;;;;;;;28.42;18.92;;;2.10;99.90;;;;;;5115916;28;20468;-85
2022/12/22 16:40:48;;;;;;;27.35;16.73;;;2.20;99.90;;;;;;5116120;28;20501;-84
2022/12/22 16:43:35;;;;;;;32.00;18.45;;;2.20;99.90;;;;;;5116177;28;20459;-85